Time;durP1;ratioP1;P1;durP2;ratioP2;P2;SDS_P1;SDS_P2;PMS_P1;PMS_P2;Temp;Humidity;BMP_temperature;BMP_pressure;BME280_temperature;BME280_humidity;BME280_pressure;Samples;Min_cycle;Max_cycle;Signal;HPM_P1;HPM_P2
2021/10/07 00:00:13;;;;;;;1.30;0.73;;;;;;;;;;5033026;28;20028;-62
2021/10/07 00:02:39;;;;;;;2.20;0.80;;;;;;;;;;5032667;28;20348;-62
2021/10/07 00:05:05;;;;;;;1.17;0.70;;;;;;;;;;5032767;28;20031;-62
2021/10/07 00:07:33;;;;;;;1.05;0.80;;;;;;;;;;5032723;28;20033;-62
2021/10/07 00:09:58;;;;;;;1.45;0.90;;;;;;;;;;5032607;28;20028;-62
2021/10/07 00:12:23;;;;;;;1.30;0.90;;;;;;;;;;5032655;28;20026;-62
2021/10/07 00:14:51;;;;;;;2.60;0.87;;;;;;;;;;5032573;28;20256;-62
2021/10/07 00:17:17;;;;;;;1.98;0.70;;;;;;;;;;5032344;28;20353;-62
2021/10/07 00:19:42;;;;;;;1.30;0.60;;;;;;;;;;5032350;28;20535;-62
2021/10/07 00:22:09;;;;;;;1.83;0.80;;;;;;;;;;5032608;28;20075;-62
2021/10/07 00:24:35;;;;;;;1.80;0.70;;;;;;;;;;5032656;28;20018;-62
2021/10/07 00:27:00;;;;;;;1.48;0.80;;;;;;;;;;5032400;28;20151;-61
2021/10/07 00:29:40;;;;;;;1.58;0.70;;;;;;;;;;5032514;28;20040;-62
2021/10/07 00:32:15;;;;;;;0.90;0.65;;;;;;;;;;5032308;28;21299;-62
2021/10/07 00:40:03;;;;;;;1.48;0.70;;;;;;;;;;5032259;28;20036;-62
2021/10/07 00:42:31;;;;;;;1.08;0.60;;;;;;;;;;5047714;28;20465;-62
2021/10/07 00:44:59;;;;;;;2.15;0.57;;;;;;;;;;5032534;28;20042;-62
2021/10/07 00:47:25;;;;;;;1.35;0.73;;;;;;;;;;5032280;28;20021;-62
2021/10/07 00:49:50;;;;;;;0.88;0.70;;;;;;;;;;5030985;28;20040;-63
2021/10/07 00:52:18;;;;;;;1.15;0.65;;;;;;;;;;5032273;28;20021;-63
2021/10/07 00:54:44;;;;;;;2.10;0.77;;;;;;;;;;5032163;28;20028;-63
2021/10/07 00:57:16;;;;;;;3.33;0.63;;;;;;;;;;5035841;28;20034;-64
2021/10/07 00:59:41;;;;;;;0.65;0.55;;;;;;;;;;5035170;28;20030;-62
2021/10/07 01:02:10;;;;;;;0.83;0.57;;;;;;;;;;5031385;28;20017;-62
2021/10/07 01:04:36;;;;;;;1.38;0.60;;;;;;;;;;5047447;28;20758;-62
2021/10/07 01:07:02;;;;;;;0.73;0.50;;;;;;;;;;5035592;28;20103;-62
2021/10/07 01:09:31;;;;;;;1.00;0.60;;;;;;;;;;5051108;28;20700;-62
2021/10/07 01:11:56;;;;;;;3.05;0.70;;;;;;;;;;5035956;28;20116;-62
2021/10/07 01:14:54;;;;;;;0.52;0.43;;;;;;;;;;5035889;28;20112;-62
2021/10/07 01:17:23;;;;;;;2.42;0.75;;;;;;;;;;5024126;28;20107;-62
2021/10/07 01:19:50;;;;;;;2.08;0.60;;;;;;;;;;5051195;28;20023;-62
2021/10/07 01:22:15;;;;;;;3.80;0.70;;;;;;;;;;5034451;28;20100;-62
2021/10/07 01:24:44;;;;;;;0.43;0.43;;;;;;;;;;5035762;28;20447;-62
2021/10/07 01:27:09;;;;;;;1.60;0.70;;;;;;;;;;5034340;28;20100;-62
2021/10/07 01:29:38;;;;;;;0.73;0.70;;;;;;;;;;5034438;28;20587;-62
2021/10/07 01:32:07;;;;;;;1.77;0.57;;;;;;;;;;5035474;28;20052;-62
2021/10/07 01:34:36;;;;;;;2.33;0.60;;;;;;;;;;5034608;28;20029;-62
2021/10/07 01:37:02;;;;;;;0.90;0.57;;;;;;;;;;5035253;28;20113;-62
2021/10/07 01:39:27;;;;;;;4.07;0.70;;;;;;;;;;5035593;28;20013;-62
2021/10/07 01:41:56;;;;;;;1.30;0.60;;;;;;;;;;5050845;28;20017;-61
2021/10/07 01:44:22;;;;;;;1.15;0.70;;;;;;;;;;5034121;28;20071;-62
2021/10/07 01:46:51;;;;;;;0.68;0.57;;;;;;;;;;5050675;28;20546;-61
2021/10/07 01:49:22;;;;;;;0.80;0.50;;;;;;;;;;5033953;28;20442;-61
2021/10/07 01:51:59;;;;;;;1.50;0.52;;;;;;;;;;5035359;28;20381;-61
2021/10/07 01:54:27;;;;;;;0.95;0.60;;;;;;;;;;5035091;28;20030;-62
2021/10/07 01:56:53;;;;;;;0.40;0.40;;;;;;;;;;5036618;28;20422;-62
2021/10/07 01:59:18;;;;;;;0.50;0.50;;;;;;;;;;5041774;28;20125;-62
2021/10/07 02:01:43;;;;;;;1.27;0.50;;;;;;;;;;5033793;28;20264;-62
2021/10/07 02:04:11;;;;;;;1.23;0.60;;;;;;;;;;5035062;28;20261;-62
2021/10/07 02:06:36;;;;;;;1.00;0.50;;;;;;;;;;5050346;28;20029;-62
2021/10/07 02:09:03;;;;;;;0.95;0.50;;;;;;;;;;5034949;28;20032;-62
2021/10/07 02:11:32;;;;;;;0.73;0.47;;;;;;;;;;5034844;28;20036;-62
2021/10/07 02:13:57;;;;;;;0.47;0.45;;;;;;;;;;5050048;28;20156;-61
2021/10/07 02:16:22;;;;;;;1.48;0.55;;;;;;;;;;5034683;28;20513;-62
2021/10/07 02:18:47;;;;;;;2.15;0.60;;;;;;;;;;5034071;28;20427;-61
2021/10/07 02:21:20;;;;;;;0.47;0.40;;;;;;;;;;5034731;28;20021;-62
2021/10/07 02:23:45;;;;;;;0.55;0.40;;;;;;;;;;5034679;28;20022;-62
2021/10/07 02:26:10;;;;;;;1.40;0.52;;;;;;;;;;5034609;28;20408;-61
2021/10/07 02:28:36;;;;;;;0.75;0.50;;;;;;;;;;5034384;28;20026;-61
2021/10/07 02:31:02;;;;;;;1.38;0.40;;;;;;;;;;5034440;28;20475;-62
2021/10/07 02:33:27;;;;;;;0.45;0.30;;;;;;;;;;5034506;28;20108;-61
2021/10/07 02:35:52;;;;;;;0.90;0.40;;;;;;;;;;5034367;28;20510;-62
2021/10/07 02:38:17;;;;;;;0.83;0.60;;;;;;;;;;5034356;28;20021;-62
2021/10/07 02:40:42;;;;;;;0.73;0.50;;;;;;;;;;5034259;28;20261;-62
2021/10/07 02:43:08;;;;;;;1.10;0.43;;;;;;;;;;5034255;28;20280;-62
2021/10/07 02:45:33;;;;;;;0.57;0.38;;;;;;;;;;5034198;28;20260;-63
2021/10/07 02:48:01;;;;;;;0.88;0.52;;;;;;;;;;5034172;28;20442;-63
2021/10/07 02:50:27;;;;;;;0.68;0.40;;;;;;;;;;5033951;28;20063;-62
2021/10/07 02:52:53;;;;;;;0.73;0.43;;;;;;;;;;5049126;28;20033;-62
2021/10/07 02:55:18;;;;;;;1.05;0.30;;;;;;;;;;5033968;28;20026;-62
2021/10/07 02:57:47;;;;;;;0.35;0.30;;;;;;;;;;5041064;28;20048;-62
2021/10/07 03:00:13;;;;;;;0.30;0.30;;;;;;;;;;5036214;28;20021;-62
2021/10/07 03:02:38;;;;;;;1.33;0.50;;;;;;;;;;5033977;28;20017;-61
2021/10/07 03:05:04;;;;;;;0.45;0.40;;;;;;;;;;5032725;28;20475;-62
2021/10/07 03:07:33;;;;;;;1.23;0.43;;;;;;;;;;5033809;28;20036;-62
2021/10/07 03:09:59;;;;;;;1.02;0.40;;;;;;;;;;5049104;28;20024;-61
2021/10/07 03:12:27;;;;;;;0.43;0.30;;;;;;;;;;5034013;28;20096;-62
2021/10/07 03:14:55;;;;;;;0.40;0.40;;;;;;;;;;5033850;28;20108;-62
2021/10/07 03:17:22;;;;;;;3.50;0.57;;;;;;;;;;5033458;28;20083;-62
2021/10/07 03:19:48;;;;;;;0.63;0.40;;;;;;;;;;5032404;28;20052;-62
2021/10/07 03:22:15;;;;;;;2.03;0.50;;;;;;;;;;5033458;28;20056;-62
2021/10/07 03:24:40;;;;;;;0.57;0.43;;;;;;;;;;5032254;28;20108;-61
2021/10/07 03:27:09;;;;;;;0.55;0.40;;;;;;;;;;5033311;28;20063;-61
2021/10/07 03:29:34;;;;;;;0.85;0.40;;;;;;;;;;5032492;28;20036;-62
2021/10/07 03:31:59;;;;;;;0.95;0.45;;;;;;;;;;5033328;28;20526;-62
2021/10/07 03:34:25;;;;;;;0.82;0.38;;;;;;;;;;5048716;28;20029;-62
2021/10/07 03:36:50;;;;;;;0.65;0.40;;;;;;;;;;5033160;28;20022;-62
2021/10/07 03:39:15;;;;;;;0.38;0.30;;;;;;;;;;5033078;28;20113;-62
2021/10/07 03:41:44;;;;;;;0.88;0.43;;;;;;;;;;5033045;28;20113;-61
2021/10/07 03:44:09;;;;;;;0.95;0.55;;;;;;;;;;5033130;28;20077;-62
2021/10/07 03:46:37;;;;;;;0.50;0.50;;;;;;;;;;5033395;28;20053;-62
2021/10/07 03:49:02;;;;;;;0.50;0.40;;;;;;;;;;5033122;28;20082;-62
2021/10/07 03:51:28;;;;;;;0.47;0.47;;;;;;;;;;5032824;28;20037;-62
2021/10/07 03:54:01;;;;;;;1.65;0.40;;;;;;;;;;5031714;28;20021;-62
2021/10/07 03:56:26;;;;;;;;;;;;;;;;;;5033338;28;20037;-62
2021/10/07 03:58:54;;;;;;;0.55;0.35;;;;;;;;;;5056738;28;19921;-61
2021/10/07 04:01:22;;;;;;;0.65;0.50;;;;;;;;;;5032928;28;20376;-62
2021/10/07 04:03:51;;;;;;;2.13;0.63;;;;;;;;;;5032938;28;20056;-62
2021/10/07 04:06:19;;;;;;;0.52;0.43;;;;;;;;;;5032776;28;20431;-62
2021/10/07 04:08:47;;;;;;;0.32;0.32;;;;;;;;;;5031018;28;20499;-62
2021/10/07 04:11:13;;;;;;;0.60;0.60;;;;;;;;;;5032586;28;20030;-62
2021/10/07 04:13:38;;;;;;;0.80;0.60;;;;;;;;;;5032730;28;20094;-62
2021/10/07 04:16:19;;;;;;;0.95;0.50;;;;;;;;;;5031301;28;20072;-61
2021/10/07 04:18:44;;;;;;;0.80;0.52;;;;;;;;;;5047777;28;20107;-60
2021/10/07 04:21:10;;;;;;;0.40;0.40;;;;;;;;;;5032532;28;20464;-62
2021/10/07 04:23:35;;;;;;;0.80;0.50;;;;;;;;;;5032570;28;20014;-62
2021/10/07 04:26:01;;;;;;;0.50;0.50;;;;;;;;;;5031234;28;20075;-62
2021/10/07 04:28:29;;;;;;;1.38;0.60;;;;;;;;;;5032427;28;20071;-62
2021/10/07 04:30:54;;;;;;;0.68;0.55;;;;;;;;;;5032452;28;20025;-62
2021/10/07 04:33:19;;;;;;;1.13;0.40;;;;;;;;;;5032507;28;20021;-62
2021/10/07 04:35:45;;;;;;;0.60;0.40;;;;;;;;;;5032265;28;20029;-62
2021/10/07 04:38:22;;;;;;;0.57;0.50;;;;;;;;;;5032422;28;20021;-62
2021/10/07 04:40:47;;;;;;;0.60;0.60;;;;;;;;;;5035501;28;20071;-62
2021/10/07 04:43:13;;;;;;;0.50;0.50;;;;;;;;;;5038984;28;20026;-62
2021/10/07 04:45:47;;;;;;;1.27;0.57;;;;;;;;;;5038888;28;20095;-62
2021/10/07 04:48:15;;;;;;;0.50;0.50;;;;;;;;;;5038547;28;20101;-62
2021/10/07 04:51:03;;;;;;;0.55;0.43;;;;;;;;;;5038857;28;20029;-62
2021/10/07 04:53:28;;;;;;;0.55;0.55;;;;;;;;;;5038896;28;20024;-62
2021/10/07 04:55:56;;;;;;;0.85;0.57;;;;;;;;;;5038802;28;20022;-62
2021/10/07 04:58:22;;;;;;;0.63;0.60;;;;;;;;;;5051445;22;20068;-63
2021/10/07 05:00:48;;;;;;;0.80;0.60;;;;;;;;;;5024335;28;21085;-63
2021/10/07 05:03:13;;;;;;;0.85;0.60;;;;;;;;;;5000644;28;20026;-63
2021/10/07 05:05:46;;;;;;;2.42;0.80;;;;;;;;;;4999618;28;20022;-62
2021/10/07 05:08:11;;;;;;;0.95;0.77;;;;;;;;;;4997984;28;20018;-63
2021/10/07 05:10:38;;;;;;;0.90;0.63;;;;;;;;;;4998019;28;20033;-63
2021/10/07 05:13:03;;;;;;;0.70;0.60;;;;;;;;;;4999179;28;20629;-61
2021/10/07 05:15:28;;;;;;;1.38;0.60;;;;;;;;;;4999275;28;20025;-63
2021/10/07 05:17:53;;;;;;;1.58;0.80;;;;;;;;;;4999026;28;20148;-63
2021/10/07 05:20:19;;;;;;;0.63;0.60;;;;;;;;;;4999228;28;20389;-63
2021/10/07 05:22:47;;;;;;;1.20;0.80;;;;;;;;;;4997919;28;20479;-63
2021/10/07 05:25:18;;;;;;;1.58;0.70;;;;;;;;;;4999160;28;20432;-63
2021/10/07 05:27:51;;;;;;;1.40;0.57;;;;;;;;;;4998957;28;20022;-63
